Time;durP1;ratioP1;P1;durP2;ratioP2;P2;SDS_P1;SDS_P2;PMS_P1;PMS_P2;Temp;Humidity;BMP_temperature;BMP_pressure;BME280_temperature;BME280_humidity;BME280_pressure;Samples;Min_cycle;Max_cycle;Signal;HPM_P1;HPM_P2
2021/07/26 00:02:22;;;;;;;13.98;11.55;;;19.90;99.90;;;;;;5036517;28;20054;-39
2021/07/26 00:04:47;;;;;;;13.35;11.95;;;19.90;99.90;;;;;;5040272;28;20032;-39
2021/07/26 00:07:13;;;;;;;12.18;10.43;;;19.90;99.90;;;;;;5051148;28;20029;-39
2021/07/26 00:09:38;;;;;;;16.27;10.60;;;19.90;99.90;;;;;;5051121;28;20400;-38
2021/07/26 00:12:05;;;;;;;15.45;10.85;;;19.90;99.90;;;;;;5048061;28;20033;-41
2021/07/26 00:14:31;;;;;;;13.18;11.75;;;19.90;99.90;;;;;;5048998;28;20043;-39
2021/07/26 00:16:57;;;;;;;14.07;10.98;;;19.90;99.90;;;;;;5033911;28;20537;-39
2021/07/26 00:19:23;;;;;;;13.38;11.98;;;19.90;99.90;;;;;;5041459;28;20083;-39
2021/07/26 00:21:50;;;;;;;12.40;11.13;;;19.90;99.90;;;;;;5039213;28;20071;-39
2021/07/26 00:24:19;;;;;;;13.95;10.75;;;19.90;99.90;;;;;;5041341;28;20033;-39
2021/07/26 00:26:45;;;;;;;14.50;11.88;;;19.90;99.90;;;;;;5042815;28;20018;-39
2021/07/26 00:29:11;;;;;;;14.35;11.55;;;19.90;99.90;;;;;;5032781;28;20647;-41
2021/07/26 00:31:36;;;;;;;13.85;12.02;;;19.90;99.90;;;;;;5042027;28;20031;-39
2021/07/26 00:34:21;;;;;;;13.73;11.52;;;19.90;99.90;;;;;;5045043;28;20078;-42
2021/07/26 00:36:55;;;;;;;11.98;10.70;;;19.90;99.90;;;;;;5055001;28;20029;-40
2021/07/26 00:39:27;;;;;;;13.77;11.18;;;19.90;99.90;;;;;;5046678;28;20178;-41
2021/07/26 00:41:54;;;;;;;12.40;10.85;;;19.90;99.90;;;;;;5047044;28;20386;-39
2021/07/26 00:44:22;;;;;;;11.40;10.18;;;19.90;99.90;;;;;;5056709;28;20021;-39
2021/07/26 00:46:49;;;;;;;12.45;10.48;;;19.90;99.90;;;;;;5054793;28;20025;-38
2021/07/26 00:49:16;;;;;;;12.77;11.30;;;19.90;99.90;;;;;;5051101;28;20028;-41
2021/07/26 00:51:46;;;;;;;11.73;10.52;;;19.90;99.90;;;;;;5049229;28;20492;-39
2021/07/26 00:54:13;;;;;;;12.80;11.50;;;19.90;99.90;;;;;;5037303;28;20034;-39
2021/07/26 00:56:39;;;;;;;12.30;11.05;;;19.90;99.90;;;;;;5050386;28;20028;-40
2021/07/26 00:59:05;;;;;;;14.82;11.68;;;19.90;99.90;;;;;;5036403;28;20036;-38
2021/07/26 01:01:31;;;;;;;14.45;12.90;;;19.90;99.90;;;;;;5042078;28;20038;-40
2021/07/26 01:03:57;;;;;;;12.52;11.10;;;19.90;99.90;;;;;;5052485;28;20025;-40
2021/07/26 01:06:22;;;;;;;14.43;12.32;;;19.90;99.90;;;;;;5039471;28;20026;-39
2021/07/26 01:08:48;;;;;;;11.82;9.50;;;19.90;99.90;;;;;;5043887;28;20428;-39
2021/07/26 01:11:14;;;;;;;13.60;11.75;;;19.90;99.90;;;;;;5039148;28;20511;-39
2021/07/26 01:13:40;;;;;;;11.70;10.48;;;19.90;99.90;;;;;;5042829;28;20120;-38
2021/07/26 01:16:06;;;;;;;12.48;10.77;;;19.90;99.90;;;;;;5056084;28;20024;-39
2021/07/26 01:18:36;;;;;;;11.70;10.50;;;19.80;99.90;;;;;;5041146;28;20037;-40
2021/07/26 01:21:04;;;;;;;10.65;9.40;;;19.80;99.90;;;;;;5047889;28;20388;-41
2021/07/26 01:23:32;;;;;;;17.83;15.77;;;19.70;99.90;;;;;;5045370;28;20025;-39
2021/07/26 01:25:58;;;;;;;14.32;12.00;;;19.70;99.90;;;;;;5038710;28;20071;-40
2021/07/26 01:28:26;;;;;;;12.77;11.52;;;19.60;99.90;;;;;;5039902;28;20587;-40
2021/07/26 01:30:52;;;;;;;13.30;11.02;;;19.60;99.90;;;;;;5036828;28;20028;-38
2021/07/26 01:33:18;;;;;;;15.73;12.77;;;19.60;99.90;;;;;;5049370;28;20041;-39
2021/07/26 01:35:44;;;;;;;12.00;10.68;;;19.60;99.90;;;;;;5039811;28;20025;-39
2021/07/26 01:38:10;;;;;;;15.88;12.98;;;19.50;99.90;;;;;;5053922;28;20032;-38
2021/07/26 01:40:39;;;;;;;16.83;15.00;;;19.50;99.90;;;;;;5055467;28;20025;-39
2021/07/26 01:43:06;;;;;;;17.80;15.88;;;19.50;99.90;;;;;;5038277;28;20037;-42
2021/07/26 01:45:32;;;;;;;19.70;15.25;;;19.50;99.90;;;;;;5040103;28;20035;-40
2021/07/26 01:48:03;;;;;;;16.45;14.55;;;19.40;99.90;;;;;;5039629;28;20358;-38
2021/07/26 01:50:35;;;;;;;18.98;14.75;;;19.30;99.90;;;;;;5046721;28;20358;-39
2021/07/26 01:53:01;;;;;;;19.83;16.40;;;19.30;99.90;;;;;;5040782;28;20029;-38
2021/07/26 01:55:26;;;;;;;20.15;15.77;;;19.20;99.90;;;;;;5046989;28;20034;-38
2021/07/26 01:57:53;;;;;;;18.83;14.45;;;19.20;99.90;;;;;;5043230;28;20366;-40
2021/07/26 02:00:18;;;;;;;19.08;16.20;;;19.10;99.90;;;;;;5038517;28;20018;-39
2021/07/26 02:02:44;;;;;;;20.13;17.55;;;19.10;99.90;;;;;;5047343;28;20525;-39
2021/07/26 02:05:10;;;;;;;18.52;16.58;;;19.10;99.90;;;;;;5053486;28;20143;-39
2021/07/26 02:07:35;;;;;;;18.13;16.23;;;19.10;99.90;;;;;;5035471;28;20091;-38
2021/07/26 02:10:02;;;;;;;19.17;16.98;;;19.10;99.90;;;;;;5036188;28;20477;-38
2021/07/26 02:12:27;;;;;;;18.33;15.75;;;19.00;99.90;;;;;;5049900;28;20071;-38
2021/07/26 02:14:53;;;;;;;19.63;15.70;;;19.00;99.90;;;;;;5040826;28;20033;-38
2021/07/26 02:17:19;;;;;;;17.92;16.02;;;19.00;99.90;;;;;;5035888;28;20037;-38
2021/07/26 02:19:44;;;;;;;18.73;14.73;;;19.00;99.90;;;;;;5043103;28;20454;-39
2021/07/26 02:22:10;;;;;;;19.60;16.17;;;19.00;99.90;;;;;;5050495;28;20037;-38
2021/07/26 02:24:35;;;;;;;19.33;16.88;;;19.00;99.90;;;;;;5041671;28;20044;-39
2021/07/26 02:27:01;;;;;;;22.30;17.85;;;19.00;99.90;;;;;;5038684;28;20033;-40
2021/07/26 02:29:26;;;;;;;16.65;13.93;;;19.00;99.90;;;;;;5042474;28;20121;-41
2021/07/26 02:31:52;;;;;;;18.83;15.82;;;18.90;99.90;;;;;;5046801;28;20369;-41
2021/07/26 02:34:17;;;;;;;16.98;14.80;;;18.90;99.90;;;;;;5049672;28;20025;-40
2021/07/26 02:36:43;;;;;;;17.38;14.43;;;18.90;99.90;;;;;;5052789;28;20040;-39
2021/07/26 02:39:08;;;;;;;16.65;14.45;;;18.90;99.90;;;;;;5044371;28;20035;-39
2021/07/26 02:41:34;;;;;;;17.70;14.70;;;18.90;99.90;;;;;;5046435;28;20033;-38
2021/07/26 02:43:59;;;;;;;16.17;14.15;;;18.90;99.90;;;;;;5040665;28;20127;-38
2021/07/26 02:46:25;;;;;;;15.32;13.75;;;18.90;99.90;;;;;;5034409;28;20109;-39
2021/07/26 02:48:50;;;;;;;17.85;14.07;;;18.90;99.90;;;;;;5035341;28;20151;-39
2021/07/26 02:51:16;;;;;;;20.50;16.75;;;18.90;99.90;;;;;;5045793;28;20036;-38
2021/07/26 02:53:41;;;;;;;21.55;17.13;;;18.80;99.90;;;;;;5043416;28;20067;-41
2021/07/26 02:56:11;;;;;;;18.23;16.23;;;18.90;99.90;;;;;;5041897;28;20029;-39
2021/07/26 02:58:37;;;;;;;17.15;13.93;;;18.80;99.90;;;;;;5047898;28;20074;-40
2021/07/26 03:01:03;;;;;;;19.80;16.05;;;18.80;99.90;;;;;;5037989;28;20028;-38
2021/07/26 03:03:29;;;;;;;20.67;16.42;;;18.80;99.90;;;;;;5045546;28;20041;-38
2021/07/26 03:05:55;;;;;;;17.45;15.52;;;18.80;99.90;;;;;;5042363;28;20385;-40
2021/07/26 03:08:20;;;;;;;15.93;14.18;;;18.80;99.90;;;;;;5036865;28;20072;-39
2021/07/26 03:10:46;;;;;;;14.75;12.68;;;18.80;99.90;;;;;;5044906;28;20592;-38
2021/07/26 03:13:11;;;;;;;15.18;13.57;;;18.80;99.90;;;;;;5036999;28;20040;-38
2021/07/26 03:15:37;;;;;;;17.42;15.52;;;18.80;99.90;;;;;;5034898;28;20496;-38
2021/07/26 03:18:03;;;;;;;16.88;15.05;;;18.80;99.90;;;;;;5034746;28;20135;-39
2021/07/26 03:20:28;;;;;;;19.08;16.02;;;18.80;99.90;;;;;;5037515;28;20037;-43
2021/07/26 03:23:01;;;;;;;17.83;15.88;;;18.70;99.90;;;;;;5047451;28;20028;-39
2021/07/26 03:25:28;;;;;;;19.10;16.65;;;18.70;99.90;;;;;;5035579;28;20026;-41
2021/07/26 03:27:54;;;;;;;20.75;18.30;;;18.70;99.90;;;;;;5042371;28;20025;-38
2021/07/26 03:30:21;;;;;;;16.33;14.57;;;18.60;99.90;;;;;;5049500;28;20048;-40
2021/07/26 03:32:47;;;;;;;19.58;17.58;;;18.60;99.90;;;;;;5048270;28;20130;-38
2021/07/26 03:35:13;;;;;;;16.15;14.45;;;18.60;99.90;;;;;;5041582;28;20116;-38
2021/07/26 03:37:39;;;;;;;17.88;14.77;;;18.60;99.90;;;;;;5033505;28;20025;-38
2021/07/26 03:40:06;;;;;;;15.55;13.68;;;18.60;99.90;;;;;;5034423;28;20116;-40
2021/07/26 03:42:38;;;;;;;14.55;13.02;;;18.60;99.90;;;;;;5034664;28;20029;-39
2021/07/26 03:45:06;;;;;;;21.80;18.30;;;18.70;99.90;;;;;;5042857;28;20087;-39
2021/07/26 03:47:31;;;;;;;22.40;16.92;;;18.70;99.90;;;;;;5039376;28;20029;-41
2021/07/26 03:49:57;;;;;;;22.98;18.45;;;18.70;99.90;;;;;;5036709;28;20029;-40
2021/07/26 03:52:22;;;;;;;16.88;14.90;;;18.70;99.90;;;;;;5043315;28;20100;-39
2021/07/26 03:54:48;;;;;;;16.83;14.93;;;18.70;99.90;;;;;;5035695;28;20121;-38
2021/07/26 03:57:13;;;;;;;16.30;14.55;;;18.70;99.90;;;;;;5050077;28;20032;-41
2021/07/26 03:59:39;;;;;;;19.23;16.13;;;18.70;99.90;;;;;;5036944;28;20037;-38
2021/07/26 04:02:04;;;;;;;17.38;15.00;;;18.70;99.90;;;;;;5047759;28;20124;-39
2021/07/26 04:04:30;;;;;;;18.00;16.02;;;18.70;99.90;;;;;;5050867;28;20040;-40
2021/07/26 04:06:58;;;;;;;20.38;16.92;;;18.70;99.90;;;;;;5041630;28;20066;-38
2021/07/26 04:09:26;;;;;;;20.60;17.13;;;18.80;99.90;;;;;;5044479;28;20028;-38
2021/07/26 04:12:00;;;;;;;18.63;16.67;;;18.80;99.90;;;;;;5040974;28;20028;-40
2021/07/26 04:14:28;;;;;;;20.55;15.85;;;18.70;99.90;;;;;;5044419;28;20029;-39
2021/07/26 04:16:54;;;;;;;18.70;15.00;;;18.70;99.90;;;;;;5036193;28;20071;-39
2021/07/26 04:19:20;;;;;;;15.48;13.77;;;18.70;99.90;;;;;;5040264;28;20037;-38
2021/07/26 04:21:45;;;;;;;15.73;14.13;;;18.70;99.90;;;;;;5052832;28;20028;-38
2021/07/26 04:24:11;;;;;;;16.60;14.90;;;18.80;99.90;;;;;;5038781;28;20049;-39
2021/07/26 04:26:36;;;;;;;26.67;20.60;;;18.80;99.90;;;;;;5047302;28;20029;-41
2021/07/26 04:29:02;;;;;;;19.80;17.75;;;18.80;99.90;;;;;;5041527;28;20021;-40
2021/07/26 04:31:27;;;;;;;16.65;14.45;;;18.80;99.90;;;;;;5034664;28;20391;-39
2021/07/26 04:33:53;;;;;;;19.30;16.17;;;18.80;99.90;;;;;;5050970;28;20021;-39
2021/07/26 04:36:18;;;;;;;16.73;14.00;;;18.80;99.90;;;;;;5039615;28;20080;-38
2021/07/26 04:38:44;;;;;;;17.95;16.05;;;18.80;99.90;;;;;;5033780;28;20025;-39
2021/07/26 04:41:09;;;;;;;17.42;15.43;;;18.80;99.90;;;;;;5032810;28;20489;-40
2021/07/26 04:43:36;;;;;;;19.85;16.60;;;18.90;99.90;;;;;;5045967;28;20120;-39
2021/07/26 04:46:01;;;;;;;19.55;16.63;;;18.90;99.90;;;;;;5041849;28;20029;-39
2021/07/26 04:48:27;;;;;;;19.35;15.52;;;18.90;99.90;;;;;;5041825;28;20021;-39
2021/07/26 04:50:52;;;;;;;18.80;16.83;;;19.00;99.90;;;;;;5040614;28;20104;-41
2021/07/26 04:53:18;;;;;;;19.75;17.58;;;19.00;99.90;;;;;;5035048;28;20025;-38
2021/07/26 04:55:43;;;;;;;18.38;16.48;;;19.00;99.90;;;;;;5045291;28;20068;-39
2021/07/26 04:58:09;;;;;;;17.08;15.30;;;19.00;99.90;;;;;;5036839;28;20036;-40
2021/07/26 05:00:34;;;;;;;18.30;16.00;;;19.10;99.90;;;;;;5039098;28;20365;-39
2021/07/26 05:03:00;;;;;;;17.35;15.45;;;19.20;99.90;;;;;;5042535;28;20128;-38
2021/07/26 05:05:25;;;;;;;19.70;16.77;;;19.20;99.90;;;;;;5032353;28;20036;-38
2021/07/26 05:07:51;;;;;;;17.40;15.57;;;19.30;99.90;;;;;;5040609;28;20076;-38
2021/07/26 05:10:17;;;;;;;17.30;15.50;;;19.30;99.90;;;;;;5043963;28;20029;-39
2021/07/26 05:12:42;;;;;;;19.08;17.08;;;19.40;99.90;;;;;;5046003;28;20112;-39
2021/07/26 05:15:09;;;;;;;20.02;17.20;;;19.40;99.90;;;;;;5048651;28;20029;-38
2021/07/26 05:17:35;;;;;;;16.65;14.95;;;19.50;99.90;;;;;;5045347;28;20040;-40
2021/07/26 05:20:00;;;;;;;19.13;16.90;;;19.60;99.90;;;;;;5049189;28;20041;-41
2021/07/26 05:22:26;;;;;;;16.30;14.43;;;19.70;99.90;;;;;;5038112;28;20037;-40
2021/07/26 05:24:51;;;;;;;20.20;17.90;;;19.80;99.90;;;;;;5048110;28;20138;-40
2021/07/26 05:27:17;;;;;;;19.45;15.52;;;19.90;99.90;;;;;;5037361;28;20049;-39
2021/07/26 05:29:43;;;;;;;18.52;16.52;;;19.90;99.90;;;;;;5044590;28;20025;-39
2021/07/26 05:32:09;;;;;;;22.02;19.73;;;20.00;99.90;;;;;;5050451;28;20075;-41
2021/07/26 05:34:35;;;;;;;21.60;19.02;;;20.00;99.90;;;;;;5036469;28;20075;-39
2021/07/26 05:37:01;;;;;;;23.67;19.88;;;20.00;99.90;;;;;;5042236;28;20108;-40
2021/07/26 05:39:26;;;;;;;24.80;19.67;;;20.10;99.90;;;;;;5039275;28;20037;-38
2021/07/26 05:41:54;;;;;;;20.15;17.90;;;20.10;99.90;;;;;;5034559;28;20033;-39
2021/07/26 05:44:19;;;;;;;20.00;17.83;;;20.10;99.90;;;;;;5047417;28;20033;-39
2021/07/26 05:46:45;;;;;;;20.35;18.17;;;20.20;99.90;;;;;;5047406;28;20028;-40
2021/07/26 05:49:11;;;;;;;21.65;18.88;;;20.30;99.90;;;;;;5039530;28;20033;-43
2021/07/26 05:51:37;;;;;;;21.75;18.45;;;20.40;99.90;;;;;;5040688;28;20051;-41
2021/07/26 05:54:04;;;;;;;19.98;17.85;;;20.40;99.90;;;;;;5047215;28;20036;-39
2021/07/26 05:56:30;;;;;;;20.25;17.52;;;20.50;99.90;;;;;;5054317;28;20021;-43
2021/07/26 05:58:57;;;;;;;18.92;17.00;;;20.60;99.90;;;;;;5046198;28;20550;-41
2021/07/26 06:01:25;;;;;;;20.88;18.67;;;20.80;99.90;;;;;;5042455;28;20037;-39
2021/07/26 06:03:51;;;;;;;21.38;18.45;;;21.10;99.90;;;;;;5041223;28;20139;-40
2021/07/26 06:06:17;;;;;;;20.60;18.58;;;21.40;99.90;;;;;;5055179;28;20039;-40
2021/07/26 06:08:43;;;;;;;20.63;18.52;;;21.80;99.90;;;;;;5048883;28;20104;-39
2021/07/26 06:11:09;;;;;;;21.85;19.55;;;22.20;99.90;;;;;;5035176;28;20057;-39
2021/07/26 06:13:34;;;;;;;23.40;20.33;;;22.50;99.90;;;;;;5040017;28;20028;-40
2021/07/26 06:16:05;;;;;;;20.50;18.40;;;22.80;99.90;;;;;;5049675;28;20033;-43
2021/07/26 06:18:31;;;;;;;20.20;18.20;;;22.90;99.90;;;;;;5049817;28;20120;-42
2021/07/26 06:20:56;;;;;;;18.73;16.77;;;23.10;99.90;;;;;;5051648;28;20574;-38
2021/07/26 06:23:22;;;;;;;17.50;15.68;;;23.20;99.90;;;;;;5051254;28;20037;-39
2021/07/26 06:25:47;;;;;;;17.38;15.55;;;23.30;99.90;;;;;;5044336;28;20061;-39
2021/07/26 06:28:13;;;;;;;16.98;14.43;;;23.30;99.90;;;;;;5040992;28;20043;-41
2021/07/26 06:30:38;;;;;;;18.83;16.88;;;23.30;99.90;;;;;;5046310;28;20135;-41
2021/07/26 06:33:08;;;;;;;19.17;17.20;;;23.40;99.90;;;;;;5044696;28;20031;-40
2021/07/26 06:35:34;;;;;;;18.60;16.75;;;23.50;99.90;;;;;;5046790;28;20035;-41
2021/07/26 06:37:59;;;;;;;17.27;15.48;;;23.50;99.90;;;;;;5034656;28;20030;-40
2021/07/26 06:40:25;;;;;;;19.08;17.10;;;23.50;99.90;;;;;;5039270;28;20096;-38
2021/07/26 06:42:50;;;;;;;17.52;15.73;;;23.50;99.90;;;;;;5053581;28;20053;-40
2021/07/26 06:45:16;;;;;;;19.48;16.60;;;23.30;99.90;;;;;;5050196;28;20028;-39
2021/07/26 06:47:43;;;;;;;22.08;17.20;;;23.40;99.90;;;;;;5040327;28;20073;-38
2021/07/26 06:50:10;;;;;;;18.98;17.02;;;23.40;99.90;;;;;;5043199;28;20032;-38
2021/07/26 06:52:35;;;;;;;19.00;17.10;;;23.40;99.90;;;;;;5043016;28;20064;-41
2021/07/26 06:55:01;;;;;;;20.08;17.92;;;23.40;99.90;;;;;;5045525;28;20502;-38
2021/07/26 06:57:26;;;;;;;19.75;17.80;;;23.30;99.90;;;;;;5043401;28;20029;-39
2021/07/26 06:59:52;;;;;;;20.70;17.83;;;23.30;99.90;;;;;;5042935;28;20049;-40
2021/07/26 07:02:17;;;;;;;20.27;17.08;;;23.40;99.90;;;;;;5037580;28;20497;-40
2021/07/26 07:04:42;;;;;;;20.52;16.73;;;23.40;99.90;;;;;;5051984;28;20032;-40
2021/07/26 07:07:10;;;;;;;17.83;15.68;;;23.50;99.90;;;;;;5049060;28;20033;-39
2021/07/26 07:09:36;;;;;;;18.90;16.88;;;23.50;99.90;;;;;;5041338;28;20040;-40
2021/07/26 07:12:01;;;;;;;16.85;15.15;;;23.60;99.90;;;;;;5036729;28;20017;-40
2021/07/26 07:14:27;;;;;;;19.70;16.38;;;23.80;99.90;;;;;;5041909;28;20467;-39
2021/07/26 07:16:53;;;;;;;17.67;15.57;;;24.10;99.90;;;;;;5043057;28;20040;-38
2021/07/26 07:19:18;;;;;;;17.48;15.02;;;24.30;99.90;;;;;;5040536;28;20427;-40
2021/07/26 07:21:44;;;;;;;18.60;16.60;;;24.40;99.90;;;;;;5040968;28;20048;-39
2021/07/26 07:24:09;;;;;;;20.35;16.50;;;24.50;99.90;;;;;;5038762;28;20060;-39
2021/07/26 07:26:35;;;;;;;18.58;16.65;;;24.50;99.90;;;;;;5032856;28;20029;-38
2021/07/26 07:29:02;;;;;;;16.75;15.07;;;24.40;99.90;;;;;;5040291;28;20495;-38
2021/07/26 07:31:28;;;;;;;18.75;16.95;;;24.40;99.90;;;;;;5051996;28;20036;-43
2021/07/26 07:33:54;;;;;;;19.35;17.40;;;24.50;99.90;;;;;;5040399;28;20403;-39
2021/07/26 07:36:20;;;;;;;20.40;17.85;;;24.40;99.90;;;;;;5033925;28;20043;-39
2021/07/26 07:38:46;;;;;;;20.30;18.20;;;24.40;99.90;;;;;;5050097;28;20388;-39
2021/07/26 07:41:12;;;;;;;21.55;17.48;;;24.50;99.90;;;;;;5036356;28;20041;-38
2021/07/26 07:43:38;;;;;;;19.85;17.73;;;24.60;99.90;;;;;;5037057;28;20037;-41
2021/07/26 07:46:04;;;;;;;18.35;16.17;;;24.80;99.90;;;;;;5042090;28;20025;-39
2021/07/26 07:48:31;;;;;;;20.50;18.25;;;25.10;99.90;;;;;;5059662;28;20021;-39
2021/07/26 07:50:57;;;;;;;17.15;15.40;;;25.50;99.90;;;;;;5054549;28;20595;-39
2021/07/26 07:53:23;;;;;;;18.38;16.58;;;25.70;99.90;;;;;;5053020;28;20025;-39
2021/07/26 07:55:49;;;;;;;19.13;17.23;;;26.00;99.90;;;;;;5052310;28;20025;-39
2021/07/26 07:58:14;;;;;;;20.10;18.15;;;26.00;99.90;;;;;;5041682;28;20025;-39
2021/07/26 08:00:40;;;;;;;18.75;16.95;;;26.00;99.90;;;;;;5042280;28;20025;-40
2021/07/26 08:03:05;;;;;;;19.67;17.52;;;26.10;99.90;;;;;;5043109;28;20080;-38
2021/07/26 08:05:31;;;;;;;18.20;16.30;;;26.20;99.90;;;;;;5043109;28;20042;-41
2021/07/26 08:07:57;;;;;;;17.63;15.75;;;26.60;99.90;;;;;;5043243;28;20397;-40
2021/07/26 08:10:23;;;;;;;18.83;16.92;;;27.50;99.90;;;;;;5051156;28;20096;-38
2021/07/26 08:12:49;;;;;;;21.13;17.20;;;28.20;99.90;;;;;;5051652;28;20108;-39
2021/07/26 08:15:15;;;;;;;17.83;16.02;;;28.70;99.90;;;;;;5047585;28;20116;-39
2021/07/26 08:17:42;;;;;;;17.58;15.88;;;29.10;99.90;;;;;;5039665;28;20392;-41
2021/07/26 08:20:10;;;;;;;16.80;15.20;;;29.60;99.90;;;;;;5036740;28;20200;-39
2021/07/26 08:22:36;;;;;;;17.48;15.68;;;30.90;99.90;;;;;;5041393;28;20033;-41
2021/07/26 08:25:03;;;;;;;18.05;16.25;;;32.70;99.90;;;;;;5035587;28;20384;-40
2021/07/26 08:27:28;;;;;;;16.55;14.95;;;34.00;97.10;;;;;;5041347;28;20476;-39
2021/07/26 08:29:54;;;;;;;17.85;15.95;;;34.70;94.30;;;;;;5043718;28;20067;-39
2021/07/26 08:32:20;;;;;;;17.92;14.90;;;34.90;90.70;;;;;;5045902;28;20067;-41
2021/07/26 08:34:45;;;;;;;15.95;14.07;;;34.70;90.20;;;;;;5040106;28;20400;-39
2021/07/26 08:37:11;;;;;;;16.92;13.65;;;34.30;84.40;;;;;;5040752;28;20037;-39
2021/07/26 08:39:38;;;;;;;14.07;12.73;;;34.60;80.90;;;;;;5051441;28;20040;-40
2021/07/26 08:42:04;;;;;;;14.98;13.68;;;34.60;80.80;;;;;;5045970;28;20457;-39
2021/07/26 08:44:33;;;;;;;15.15;13.63;;;34.20;81.40;;;;;;5032579;28;20393;-39
2021/07/26 08:47:02;;;;;;;15.10;13.60;;;33.90;80.50;;;;;;5039891;28;20111;-39
2021/07/26 08:49:28;;;;;;;15.45;13.77;;;34.90;74.40;;;;;;5032694;28;20025;-40
2021/07/26 08:51:55;;;;;;;15.13;13.52;;;35.40;71.20;;;;;;5040838;28;20079;-39
2021/07/26 08:54:22;;;;;;;14.27;12.82;;;36.50;66.50;;;;;;5040853;28;20457;-41
2021/07/26 08:56:50;;;;;;;14.48;13.07;;;37.20;63.60;;;;;;5040330;28;20477;-40
2021/07/26 08:59:15;;;;;;;13.68;12.38;;;38.00;59.20;;;;;;5053671;28;20115;-42
2021/07/26 09:01:43;;;;;;;14.43;13.02;;;38.60;57.10;;;;;;5052229;28;20458;-42
2021/07/26 09:04:09;;;;;;;14.20;12.75;;;39.30;54.90;;;;;;5054570;28;20036;-41
2021/07/26 09:06:34;;;;;;;15.48;13.95;;;39.90;52.50;;;;;;5039810;28;20384;-40
2021/07/26 09:09:01;;;;;;;16.52;14.82;;;39.70;49.30;;;;;;5038976;28;20029;-40
2021/07/26 09:11:45;;;;;;;16.05;13.35;;;39.30;46.70;;;;;;5055070;28;20498;-42
2021/07/26 09:14:31;;;;;;;17.48;15.63;;;39.00;41.50;;;;;;5055962;28;20029;-40
2021/07/26 09:16:56;;;;;;;18.08;16.10;;;38.70;43.70;;;;;;5055867;28;20047;-39
2021/07/26 09:19:22;;;;;;;15.10;13.70;;;38.70;42.40;;;;;;5051621;28;20547;-40
2021/07/26 09:21:52;;;;;;;15.75;14.15;;;38.70;42.90;;;;;;5036953;28;20108;-39
2021/07/26 09:24:27;;;;;;;16.48;14.98;;;38.50;39.60;;;;;;5035886;28;20052;-41
2021/07/26 09:27:06;;;;;;;17.08;15.55;;;37.90;42.20;;;;;;5035673;28;20056;-42
2021/07/26 09:29:31;;;;;;;16.77;15.15;;;37.20;43.30;;;;;;5047837;28;20029;-39
2021/07/26 09:32:01;;;;;;;17.88;16.17;;;36.60;43.80;;;;;;5050895;28;20032;-40
2021/07/26 09:34:27;;;;;;;17.65;15.95;;;36.60;43.40;;;;;;5055750;28;20021;-42
2021/07/26 09:36:53;;;;;;;19.05;17.10;;;36.30;42.40;;;;;;5055782;28;20060;-39
2021/07/26 09:39:29;;;;;;;17.60;15.93;;;35.80;43.00;;;;;;5055680;28;20060;-40
2021/07/26 09:41:58;;;;;;;15.90;14.50;;;36.10;42.50;;;;;;5054288;28;20422;-40
2021/07/26 09:44:28;;;;;;;19.23;17.42;;;36.40;42.90;;;;;;5055511;28;20464;-40
2021/07/26 09:47:14;;;;;;;19.15;17.25;;;36.20;41.80;;;;;;5055595;28;20375;-39
2021/07/26 09:49:39;;;;;;;19.45;17.65;;;35.70;43.00;;;;;;5055409;28;20021;-40
2021/07/26 09:52:08;;;;;;;17.95;16.17;;;35.60;42.10;;;;;;5055410;28;20074;-39
2021/07/26 09:54:44;;;;;;;18.23;16.52;;;35.40;42.20;;;;;;5055395;28;20029;-42
2021/07/26 09:57:23;;;;;;;18.52;16.63;;;35.60;42.20;;;;;;5054083;28;20036;-40
2021/07/26 09:59:50;;;;;;;16.02;14.43;;;35.90;40.30;;;;;;5055280;28;20526;-39
2021/07/26 10:02:18;;;;;;;16.33;14.73;;;36.00;41.10;;;;;;5055094;28;20090;-39
2021/07/26 10:04:44;;;;;;;17.83;15.85;;;35.70;41.50;;;;;;5054022;28;20025;-39
2021/07/26 10:07:15;;;;;;;16.17;14.63;;;35.30;42.50;;;;;;5055258;28;20071;-40
2021/07/26 10:09:42;;;;;;;16.83;15.13;;;35.00;44.00;;;;;;5055131;28;20101;-39
2021/07/26 10:12:26;;;;;;;16.65;14.82;;;34.90;45.00;;;;;;5053848;28;20025;-41
2021/07/26 10:14:53;;;;;;;18.20;16.45;;;34.70;46.10;;;;;;5054986;28;20468;-39
2021/07/26 10:17:18;;;;;;;19.20;17.33;;;34.40;45.70;;;;;;5054876;28;20036;-39
2021/07/26 10:19:44;;;;;;;20.23;18.17;;;34.00;46.80;;;;;;5054826;28;20033;-39
2021/07/26 10:22:13;;;;;;;19.80;17.90;;;33.60;47.90;;;;;;5054909;28;20193;-41
2021/07/26 10:24:54;;;;;;;17.67;16.08;;;33.20;49.10;;;;;;5054750;28;20082;-43
2021/07/26 10:27:28;;;;;;;18.25;16.45;;;32.90;50.10;;;;;;5053479;28;20079;-39
2021/07/26 10:29:58;;;;;;;16.98;15.38;;;32.80;50.60;;;;;;5054631;28;20361;-39
2021/07/26 10:32:30;;;;;;;17.15;15.40;;;32.60;51.70;;;;;;5054732;28;20036;-39
2021/07/26 10:35:00;;;;;;;14.75;13.25;;;32.40;52.70;;;;;;5054586;28;20021;-39
2021/07/26 10:37:41;;;;;;;16.30;14.63;;;32.40;51.60;;;;;;5054584;28;20040;-41
2021/07/26 10:40:27;;;;;;;17.73;15.90;;;32.40;52.60;;;;;;5054459;28;20387;-42
2021/07/26 10:42:55;;;;;;;17.20;13.45;;;32.30;52.90;;;;;;5053183;28;20029;-41
2021/07/26 10:45:35;;;;;;;14.32;12.95;;;32.00;53.80;;;;;;5054356;28;20040;-40
2021/07/26 10:48:19;;;;;;;15.98;13.98;;;31.90;55.30;;;;;;5054332;28;20028;-41
2021/07/26 10:50:45;;;;;;;15.13;13.63;;;31.90;54.20;;;;;;5054112;28;20025;-39
2021/07/26 10:53:10;;;;;;;12.70;11.50;;;31.90;54.50;;;;;;5054305;28;20047;-39
2021/07/26 10:56:09;;;;;;;11.82;10.73;;;31.90;54.70;;;;;;5054115;28;20107;-41
2021/07/26 10:58:38;;;;;;;13.27;11.65;;;32.10;55.10;;;;;;5042161;28;20033;-41
2021/07/26 11:01:26;;;;;;;12.43;11.23;;;32.10;53.90;;;;;;5054005;28;20021;-39
2021/07/26 11:03:53;;;;;;;14.35;11.38;;;32.30;52.60;;;;;;5054018;28;20489;-39
2021/07/26 11:06:36;;;;;;;16.83;12.68;;;32.20;53.20;;;;;;5054080;28;20111;-41
2021/07/26 11:09:32;;;;;;;15.43;12.02;;;32.20;51.70;;;;;;5052727;28;20021;-41
2021/07/26 11:11:59;;;;;;;;;;;31.80;52.50;;;;;;5053102;28;20017;-39
2021/07/26 11:14:25;;;;;;;11.32;10.13;;;31.50;54.70;;;;;;5053900;28;19912;-40
2021/07/26 11:16:55;;;;;;;9.45;8.50;;;31.40;55.50;;;;;;5053616;28;20033;-39
2021/07/26 11:19:34;;;;;;;9.88;8.73;;;31.50;54.30;;;;;;5053793;28;20028;-42
2021/07/26 11:22:00;;;;;;;12.35;9.77;;;31.60;54.00;;;;;;5053584;28;20017;-40
2021/07/26 11:24:41;;;;;;;11.50;8.52;;;31.70;53.10;;;;;;5053646;28;20029;-40
2021/07/26 11:27:22;;;;;;;9.02;8.05;;;31.80;53.20;;;;;;5052375;28;20487;-40
2021/07/26 11:29:52;;;;;;;10.85;9.77;;;32.00;50.50;;;;;;5053551;28;20075;-44
2021/07/26 11:32:22;;;;;;;10.32;8.63;;;32.00;51.30;;;;;;5053444;28;20025;-40
2021/07/26 11:34:59;;;;;;;9.48;8.57;;;32.10;52.10;;;;;;5053480;28;20025;-39
2021/07/26 11:37:36;;;;;;;10.40;9.23;;;32.20;50.90;;;;;;5052287;28;20032;-40
2021/07/26 11:40:11;;;;;;;10.68;9.38;;;32.30;50.20;;;;;;5053399;28;20021;-39
2021/07/26 11:42:37;;;;;;;;;;;32.10;50.70;;;;;;5052514;28;20037;-39
2021/07/26 11:45:04;;;;;;;9.07;8.10;;;31.90;51.50;;;;;;5053123;28;19916;-39
2021/07/26 11:47:38;;;;;;;10.45;9.40;;;31.70;52.80;;;;;;5053334;28;20141;-41
2021/07/26 11:50:06;;;;;;;10.45;8.70;;;31.70;51.50;;;;;;5053194;28;20025;-41
2021/07/26 11:52:32;;;;;;;9.00;8.10;;;31.50;53.10;;;;;;5053215;28;20033;-43
2021/07/26 11:54:58;;;;;;;10.23;9.13;;;31.40;55.30;;;;;;5053152;28;20033;-41
2021/07/26 11:57:23;;;;;;;9.73;8.65;;;31.50;55.40;;;;;;5051713;28;20380;-39
2021/07/26 11:59:53;;;;;;;10.82;9.23;;;31.60;54.50;;;;;;5053051;28;20068;-41
2021/07/26 12:02:33;;;;;;;9.07;8.18;;;31.80;54.40;;;;;;5052899;28;20496;-39
2021/07/26 12:05:09;;;;;;;9.25;8.32;;;32.00;54.20;;;;;;5052907;28;20076;-39
2021/07/26 12:07:43;;;;;;;9.57;7.68;;;32.20;53.40;;;;;;5053005;28;20463;-39
2021/07/26 12:10:11;;;;;;;10.30;8.23;;;32.40;51.10;;;;;;5052914;28;20032;-41
2021/07/26 12:12:39;;;;;;;9.00;8.13;;;32.40;51.50;;;;;;5051640;28;20021;-41
2021/07/26 12:15:26;;;;;;;9.95;8.48;;;32.30;52.10;;;;;;5053049;28;20029;-42
2021/07/26 12:18:08;;;;;;;9.38;8.57;;;32.00;51.80;;;;;;5052745;28;20108;-44
2021/07/26 12:20:40;;;;;;;8.75;7.90;;;32.00;52.40;;;;;;5052745;28;20029;-39
2021/07/26 12:23:11;;;;;;;9.60;8.70;;;32.00;52.50;;;;;;5052737;28;20075;-41
2021/07/26 12:25:48;;;;;;;7.82;7.07;;;32.20;53.30;;;;;;5052679;28;20036;-41
2021/07/26 12:28:19;;;;;;;9.05;8.15;;;32.30;51.10;;;;;;5052186;28;20036;-41
2021/07/26 12:30:47;;;;;;;8.30;7.50;;;32.30;50.90;;;;;;5052515;28;20032;-39
2021/07/26 12:33:30;;;;;;;7.97;7.22;;;32.40;51.60;;;;;;5052689;28;20021;-39